• Join FlightAware (Why Join?)
  • Login
  • US Flag 
10:32AM EDT


 

Airport Tracker/Info


-or-


 

Live Flight TrackerFlight Track Log ✈ CSN3834 ✈ 26/Aug/2014 ✈ ZULS / LXA - ZUCK / CKG

Flight Track Log - Related Links

Times and Time Zones

All times are in EDT time to prevent confusion due to time zone crossing. See the CSN3834 flight status page for this flight to view local times or setup timezone preferences in your user account.

Time Position Orientation Groundspeed Altitude Reporting Facility
EDT Latitude Longitude Course Direction KTS MPH feet Rate Location/Type
07:53AM 29.3089 91.0422 84° East  Level Estimated
07:54AM 29.3200 91.1724 84° East  Level Estimated
07:55AM 29.3309 91.3027 84° East  Level Estimated
07:56AM 29.3417 91.4330 85° East  Level Estimated
07:57AM 29.3523 91.5633 85° East  Level Estimated
07:58AM 29.3628 91.6936 85° East  Level Estimated
07:59AM 29.3732 91.8240 85° East  Level Estimated
08:00AM 29.3835 91.9544 85° East  Level Estimated
08:01AM 29.3937 92.0848 85° East  Level Estimated
08:02AM 29.4037 92.2153 85° East  Level Estimated
08:03AM 29.4136 92.3458 85° East  Level Estimated
08:04AM 29.4233 92.4763 85° East  Level Estimated
08:05AM 29.4330 92.6068 85° East  Level Estimated
08:06AM 29.4425 92.7373 85° East  Level Estimated
08:07AM 29.4519 92.8679 85° East  Level Estimated
08:08AM 29.4611 92.9985 85° East  Level Estimated
08:09AM 29.4703 93.1292 85° East  Level Estimated
08:10AM 29.4793 93.2598 85° East  Level Estimated
08:11AM 29.4881 93.3905 86° East  Level Estimated
08:12AM 29.4969 93.5212 86° East  Level Estimated
08:13AM 29.5055 93.6519 86° East  Level Estimated
08:14AM 29.5140 93.7826 86° East  Level Estimated
08:15AM 29.5224 93.9134 86° East  Level Estimated
08:16AM 29.5306 94.0442 86° East  Level Estimated
08:17AM 29.5387 94.1750 86° East  Level Estimated
08:18AM 29.5467 94.3058 86° East  Level Estimated
08:19AM 29.5543 94.4334 86° East  Level Estimated
08:20AM 29.5619 94.5611 86° East  Level Estimated
08:21AM 29.5693 94.6888 86° East  Level Estimated
08:22AM 29.5766 94.8165 86° East  Level Estimated
08:23AM 29.5838 94.9443 86° East  Level Estimated
08:24AM 29.5908 95.0720 86° East  Level Estimated
08:25AM 29.5977 95.1998 86° East  Level Estimated
08:26AM 29.6045 95.3275 86° East  Level Estimated
08:27AM 29.6112 95.4553 87° East  Level Estimated
08:28AM 29.6178 95.5832 87° East  Level Estimated
08:29AM 29.6242 95.7110 87° East  Level Estimated
08:30AM 29.6305 95.8388 87° East  Level Estimated
08:31AM 29.6367 95.9667 87° East  Level Estimated
08:32AM 29.6428 96.0946 87° East  Level Estimated
08:33AM 29.6488 96.2225 87° East  Level Estimated
08:34AM 29.6546 96.3504 87° East  Level Estimated
08:35AM 29.6603 96.4783 87° East  Level Estimated
08:36AM 29.6658 96.6062 87° East  Level Estimated
08:37AM 29.6713 96.7342 87° East  Level Estimated
08:38AM 29.6766 96.8622 87° East  Level Estimated
08:39AM 29.6819 96.9902 87° East  Level Estimated
08:40AM 29.6869 97.1181 87° East  Level Estimated
08:41AM 29.6919 97.2461 87° East  Level Estimated
08:42AM 29.6967 97.3742 87° East  Level Estimated
08:43AM 29.7015 97.5022 88° East  Level Estimated
08:44AM 29.7061 97.6302 88° East  Level Estimated
08:45AM 29.7105 97.7583 88° East  Level Estimated
08:46AM 29.7149 97.8864 88° East  Level Estimated
08:47AM 29.7191 98.0144 88° East  Level Estimated
08:48AM 29.7232 98.1425 88° East  Level Estimated
08:49AM 29.7272 98.2706 88° East  Level Estimated
08:50AM 29.7310 98.3987 88° East  Level Estimated
08:51AM 29.7348 98.5268 88° East  Level Estimated
08:52AM 29.7384 98.6550 88° East  Level Estimated
08:53AM 29.7419 98.7831 88° East  Level Estimated
08:54AM 29.7452 98.9112 88° East  Level Estimated
08:55AM 29.7485 99.0394 88° East  Level Estimated
08:56AM 29.7516 99.1676 88° East  Level Estimated
08:57AM 29.7546 99.2957 88° East  Level Estimated
08:58AM 29.7574 99.4239 88° East  Level Estimated
08:59AM 29.7602 99.5521 89° East  Level Estimated
09:00AM 29.7628 99.6803 89° East  Level Estimated
09:01AM 29.7653 99.8085 89° East  Level Estimated
09:02AM 29.7677 99.9367 89° East  Level Estimated
09:03AM 29.7699 100.0649 89° East  Level Estimated
09:04AM 29.7720 100.1931 89° East  Level Estimated
09:05AM 29.7740 100.3213 89° East  Level Estimated
09:06AM 29.7759 100.4495 89° East  Level Estimated
09:07AM 29.7777 100.5778 89° East  Level Estimated
09:08AM 29.7793 100.7060 89° East  Level Estimated
09:09AM 29.7808 100.8342 89° East  Level Estimated
09:10AM 29.7822 100.9625 89° East  Level Estimated
09:11AM 29.7834 101.0907 89° East  Level Estimated
09:12AM 29.7846 101.2190 89° East  Level Estimated
09:13AM 29.7856 101.3472 89° East  Level Estimated
09:14AM 29.7865 101.4755 90° East  Level Estimated
09:15AM 29.7873 101.6037 90° East  Level Estimated
09:16AM 29.7879 101.7320 90° East  Level Estimated
09:17AM 29.7884 101.8603 90° East  Level Estimated
09:18AM 29.7888 101.9885 90° East  Level Estimated
09:19AM 29.7891 102.1168 90° East  Level Estimated
09:20AM 29.7892 102.2450 90° East  Level Estimated
09:21AM 29.7892 102.3733 90° East  Level Estimated
09:22AM 29.7891 102.5015 90° East  Level Estimated
09:23AM 29.7889 102.6298 90° East  Level Estimated
09:24AM 29.7886 102.7581 90° East  Level Estimated
09:25AM 29.7881 102.8863 90° East  Level Estimated
09:26AM 29.7875 103.0146 90° East  Level Estimated
09:27AM 29.7868 103.1428 90° East  Level Estimated
09:28AM 29.7859 103.2711 90° East  Level Estimated
09:29AM 29.7850 103.3994 90° East  Level Estimated
09:30AM 29.7839 103.5276 91° East  Level Estimated
09:31AM 29.7827 103.6558 91° East  Level Estimated
09:32AM 29.7813 103.7841 91° East  Level Estimated
09:33AM 29.7799 103.9123 91° East  Level Estimated
09:34AM 29.7783 104.0406 91° East  Level Estimated
09:35AM 29.7766 104.1688 91° East  Level Estimated
09:36AM 29.7747 104.2970 91° East  Level Estimated
09:37AM 29.7728 104.4252 91° East  Level Estimated
09:38AM 29.7707 104.5535 91° East  Level Estimated
09:39AM 29.7685 104.6817 91° East  Level Estimated
09:40AM 29.7661 104.8099 91° East  Level Estimated
09:41AM 29.7637 104.9381 91° East  Level Estimated
09:42AM 29.7611 105.0663 91° East  Level Estimated
09:43AM 29.7584 105.1944 91° East  Level Estimated
09:44AM 29.7556 105.3226 91° East  Level Estimated
09:45AM 29.7526 105.4508 91° East  Level Estimated
09:46AM 29.7496 105.5790 92° East  Level Estimated
09:47AM 29.7464 105.7071 92° East  Level Estimated
09:48AM 29.7431 105.8353 92° East  Level Estimated
09:49AM 29.7396 105.9634 92° East  Level Estimated
09:50AM 29.7361 106.0915 92° East  Level Estimated
09:51AM 29.7324 106.2197 92° East  Level Estimated
09:52AM 29.7286 106.3478 92° East  Level Estimated
09:53AM 29.7246 106.4759 92° East  Level Estimated
09:54AM 29.7206 106.6040 92° East  Level Estimated
09:55AM 29.7194 106.6410 92° East  Level Estimated
09:56AM 29.7194 106.6410 North  Level Estimated
09:57AM 29.7194 106.6410 North  Level Estimated
09:58AM 29.7194 106.6410 North  Level Estimated
09:59AM 29.7194 106.6410 North  Level Estimated
10:00AM 29.7194 106.6410 North  Level Estimated
10:01AM 29.7194 106.6410 North  Level Estimated
10:02AM 29.7194 106.6410 North  Level Estimated
10:03AM 29.7194 106.6410 North  Level Estimated
10:04AM 29.7194 106.6410 North  Level Estimated
10:05AM 29.7194 106.6410 North  Level Estimated
10:06AM 29.7194 106.6410 North  Level Estimated
10:07AM 29.7194 106.6410 North  Level Estimated
10:08AM 29.7194 106.6410 North  Level Estimated
10:09AM 29.7194 106.6410 North  Level Estimated
10:10AM 29.7194 106.6410 North  Level Estimated
10:11AM 29.7194 106.6410 North  Level Estimated
10:12AM 29.7194 106.6410 North  Level Estimated
10:13AM 29.7194 106.6410 North  Level Estimated
10:14AM 29.7194 106.6410 North  Level Estimated
10:15AM 29.7194 106.6410 North  Level Estimated
10:16AM 29.7194 106.6410 North  Level Estimated
10:17AM 29.7194 106.6410 North  Level Estimated
10:18AM 29.7194 106.6410 North  Level Estimated
10:19AM 29.7194 106.6410 North  Level Estimated
10:20AM 29.7194 106.6410 North  Level Estimated
10:21AM 29.7194 106.6410 North  Level Estimated
10:22AM 29.7194 106.6410 North  Level Estimated
10:23AM 29.7194 106.6410 North  Level Estimated
10:24AM 29.7194 106.6410 North  Level Estimated
10:25AM 29.7194 106.6410 North  Level Estimated
10:26AM 29.7194 106.6410 North  Level Estimated
10:27AM 29.7194 106.6410 North  Level Estimated
10:28AM 29.7194 106.6410 North  Level Estimated
10:29AM 29.7194 106.6410 North  Level Estimated
10:30AM 29.7194 106.6410 North  Level Estimated
10:31AM 29.7194 106.6410 North  Level Estimated
10:32AM 29.7194 106.6410 North  Level Estimated
10:33AM 29.7194 106.6410 North  Level Estimated
10:34AM 29.7194 106.6410 North  Level Estimated
10:35AM 29.7194 106.6410 North  Level Estimated
10:36AM 29.7194 106.6410 North  Level Estimated
10:37AM 29.7194 106.6410 North  Level Estimated
10:38AM 29.7194 106.6410 North  Level Estimated
10:39AM 29.7194 106.6410 North  Level Estimated
10:40AM 29.7194 106.6410 North  Level Estimated
10:41AM 29.7194 106.6410 North  Level Estimated
10:42AM 29.7194 106.6410 North  Level Estimated
10:43AM 29.7194 106.6410 North  Level Estimated
10:44AM 29.7194 106.6410 North  Level Estimated
10:45AM 29.7194 106.6410 North  Level Estimated